Time;durP1;ratioP1;P1;durP2;ratioP2;P2;SDS_P1;SDS_P2;PMS_P1;PMS_P2;Temp;Humidity;BMP_temperature;BMP_pressure;BME280_temperature;BME280_humidity;BME280_pressure;Samples;Min_cycle;Max_cycle;Signal;HPM_P1;HPM_P2
2022/06/20 00:00:17;;;;;;;8.37;6.10;;;28.40;57.50;;;;;;4999689;28;20470;-63
2022/06/20 00:02:47;;;;;;;10.03;7.03;;;28.40;57.50;;;;;;5014837;28;20439;-63
2022/06/20 00:05:20;;;;;;;10.20;6.50;;;28.30;57.60;;;;;;5016532;28;20457;-63
2022/06/20 00:07:46;;;;;;;9.77;6.77;;;28.30;57.60;;;;;;5016347;28;20634;-64
2022/06/20 00:10:14;;;;;;;11.13;6.80;;;28.30;57.70;;;;;;5016142;28;20410;-64
2022/06/20 00:12:40;;;;;;;11.13;7.00;;;28.30;57.80;;;;;;5016548;28;20525;-64
2022/06/20 00:15:07;;;;;;;14.53;6.90;;;28.20;57.80;;;;;;5015367;28;20639;-64
2022/06/20 00:17:33;;;;;;;14.20;6.90;;;28.20;57.90;;;;;;5014282;28;20208;-64
2022/06/20 00:19:59;;;;;;;11.57;7.23;;;28.10;58.10;;;;;;5019892;28;20447;-64
2022/06/20 00:22:25;;;;;;;10.60;6.47;;;28.10;58.20;;;;;;5016650;28;20188;-64
2022/06/20 00:24:51;;;;;;;9.67;7.20;;;28.10;58.40;;;;;;5016844;28;21070;-64
2022/06/20 00:27:16;;;;;;;10.10;7.10;;;28.10;58.40;;;;;;5019017;28;20266;-64
2022/06/20 00:29:49;;;;;;;13.13;6.90;;;28.10;58.30;;;;;;5019562;28;20999;-64
2022/06/20 00:32:15;;;;;;;8.33;6.43;;;28.00;58.40;;;;;;5014093;28;20264;-64
2022/06/20 00:34:40;;;;;;;10.97;6.70;;;28.00;58.60;;;;;;5018278;28;20626;-64
2022/06/20 00:37:13;;;;;;;9.30;6.50;;;28.00;58.50;;;;;;5014403;28;20204;-64
2022/06/20 00:39:38;;;;;;;9.60;7.60;;;28.00;58.70;;;;;;5000965;28;20267;-64
2022/06/20 00:42:04;;;;;;;11.50;7.03;;;28.00;58.80;;;;;;5017090;28;20514;-64
2022/06/20 00:44:39;;;;;;;9.20;5.83;;;27.90;58.70;;;;;;5015690;28;20205;-64
2022/06/20 00:47:16;;;;;;;10.10;6.90;;;28.00;59.40;;;;;;5014397;28;20212;-64
2022/06/20 00:50:03;;;;;;;11.83;6.50;;;27.90;58.80;;;;;;5015737;28;20573;-64
2022/06/20 00:52:46;;;;;;;9.67;7.03;;;27.90;58.80;;;;;;5018331;28;20435;-64
2022/06/20 00:55:24;;;;;;;13.40;6.37;;;27.90;58.90;;;;;;5016781;28;20940;-64
2022/06/20 00:58:17;;;;;;;10.00;6.47;;;27.90;59.00;;;;;;5016527;28;20472;-64
2022/06/20 01:00:43;;;;;;;10.87;7.17;;;27.80;59.20;;;;;;5015400;28;20874;-64
2022/06/20 01:03:23;;;;;;;11.30;7.87;;;27.80;59.10;;;;;;5016866;28;20530;-64
2022/06/20 01:06:02;;;;;;;10.70;6.73;;;27.80;59.40;;;;;;4999785;28;20455;-64
2022/06/20 01:08:56;;;;;;;13.70;6.87;;;27.80;59.40;;;;;;5012043;28;20494;-64
2022/06/20 01:11:27;;;;;;;10.20;6.63;;;27.70;59.30;;;;;;5015653;28;21220;-62
2022/06/20 01:13:53;;;;;;;11.40;6.87;;;27.70;59.50;;;;;;5017153;28;20527;-63
2022/06/20 01:16:19;;;;;;;11.50;6.83;;;27.70;59.50;;;;;;5017132;28;20434;-64
2022/06/20 01:18:47;;;;;;;10.63;6.60;;;27.70;59.60;;;;;;5011997;28;20447;-63
2022/06/20 01:21:20;;;;;;;9.13;6.13;;;27.70;59.60;;;;;;5015190;28;20605;-64
2022/06/20 01:24:03;;;;;;;10.23;6.40;;;27.70;59.60;;;;;;5002201;28;20492;-64
2022/06/20 01:27:03;;;;;;;10.63;6.10;;;27.70;59.70;;;;;;5016331;28;20466;-63
2022/06/20 01:29:28;;;;;;;11.53;7.83;;;27.70;59.70;;;;;;4994402;28;20999;-64
2022/06/20 01:31:56;;;;;;;12.87;6.87;;;27.70;59.90;;;;;;5017061;28;20435;-64
2022/06/20 01:34:22;;;;;;;12.40;6.77;;;27.70;59.70;;;;;;5016201;28;20199;-63
2022/06/20 01:39:39;;;;;;;10.80;6.63;;;27.50;60.20;;;;;;5013565;28;20439;-63
2022/06/20 01:42:19;;;;;;;10.30;7.87;;;27.30;60.90;;;;;;5013101;28;20443;-64
2022/06/20 01:44:49;;;;;;;10.17;7.33;;;27.10;61.70;;;;;;5012230;28;20440;-63
2022/06/20 01:47:15;;;;;;;12.73;6.37;;;27.00;62.60;;;;;;5015184;28;20487;-64
2022/06/20 01:49:43;;;;;;;6.90;6.20;;;26.90;63.00;;;;;;5011537;28;20427;-64
2022/06/20 01:52:16;;;;;;;11.70;6.83;;;26.60;63.80;;;;;;5011398;28;20922;-64
2022/06/20 01:54:45;;;;;;;8.90;7.20;;;26.70;63.80;;;;;;5017111;28;20439;-64
2022/06/20 01:57:13;;;;;;;10.30;7.60;;;26.80;63.90;;;;;;5012028;28;20498;-64
2022/06/20 01:59:46;;;;;;;13.17;6.67;;;26.70;64.20;;;;;;4991497;28;21002;-64
2022/06/20 02:02:12;;;;;;;10.10;6.77;;;26.80;64.00;;;;;;5013746;28;20467;-64
2022/06/20 02:04:39;;;;;;;11.20;6.60;;;26.70;64.20;;;;;;5016330;28;20450;-63
2022/06/20 02:07:08;;;;;;;10.77;7.53;;;26.70;64.30;;;;;;5014129;28;20459;-63
2022/06/20 02:09:34;;;;;;;9.47;7.37;;;26.70;64.70;;;;;;5014987;28;20924;-62
2022/06/20 02:12:02;;;;;;;10.77;6.50;;;26.70;64.80;;;;;;5013795;28;20455;-62
2022/06/20 02:14:42;;;;;;;10.43;6.47;;;26.80;64.50;;;;;;5014125;28;20450;-63
2022/06/20 02:17:17;;;;;;;9.93;7.43;;;26.80;64.60;;;;;;5013671;28;20478;-63
2022/06/20 02:19:50;;;;;;;8.53;6.90;;;26.90;63.80;;;;;;5013845;28;20492;-63
2022/06/20 02:22:18;;;;;;;13.43;7.30;;;26.90;63.60;;;;;;5013973;28;20467;-63
2022/06/20 02:24:49;;;;;;;8.70;5.90;;;26.90;63.10;;;;;;5013562;28;20850;-63
2022/06/20 02:27:30;;;;;;;9.50;5.93;;;26.90;63.10;;;;;;5013489;28;20598;-64
2022/06/20 02:29:57;;;;;;;11.20;6.50;;;27.00;62.90;;;;;;5010568;28;20448;-64
2022/06/20 02:32:26;;;;;;;10.00;5.30;;;26.90;62.60;;;;;;4996847;28;20471;-64
2022/06/20 02:34:53;;;;;;;10.27;5.73;;;26.90;62.80;;;;;;4997843;28;20999;-64
2022/06/20 02:37:26;;;;;;;13.33;5.97;;;26.80;62.60;;;;;;5012939;28;20546;-64
2022/06/20 02:40:03;;;;;;;12.57;6.20;;;26.60;62.90;;;;;;5013211;28;20495;-64
2022/06/20 02:42:50;;;;;;;7.30;5.60;;;26.50;63.20;;;;;;5003850;28;21323;-64
2022/06/20 02:45:18;;;;;;;11.00;6.13;;;26.30;63.30;;;;;;5011176;28;20830;-64
2022/06/20 02:47:50;;;;;;;8.07;5.47;;;26.30;63.70;;;;;;5010527;28;20476;-63
2022/06/20 02:50:20;;;;;;;11.20;5.80;;;26.20;63.50;;;;;;5013171;28;20803;-64
2022/06/20 02:52:52;;;;;;;14.10;6.07;;;26.10;63.60;;;;;;5015552;28;20432;-64
2022/06/20 02:55:19;;;;;;;10.13;5.90;;;26.10;63.80;;;;;;5013816;28;20439;-64
2022/06/20 02:57:50;;;;;;;9.23;6.03;;;25.90;63.90;;;;;;5012850;28;20567;-64
2022/06/20 03:00:21;;;;;;;5.87;5.00;;;25.80;64.70;;;;;;5010646;28;20471;-64
2022/06/20 03:02:54;;;;;;;9.63;6.27;;;25.90;64.70;;;;;;5011956;28;20435;-63
2022/06/20 03:05:20;;;;;;;6.30;5.23;;;25.90;64.60;;;;;;5016884;28;20480;-64
2022/06/20 03:07:49;;;;;;;7.40;5.33;;;26.00;64.20;;;;;;5015499;28;20490;-63
2022/06/20 03:10:15;;;;;;;11.50;6.63;;;25.80;63.90;;;;;;5012685;28;20428;-63
2022/06/20 03:12:40;;;;;;;14.80;5.43;;;25.70;64.50;;;;;;5013064;28;20970;-63
2022/06/20 03:15:07;;;;;;;8.90;5.27;;;25.70;64.40;;;;;;5013416;28;20200;-63
2022/06/20 03:17:32;;;;;;;8.40;5.27;;;25.80;64.10;;;;;;5012558;28;20217;-63
2022/06/20 03:20:03;;;;;;;11.00;5.40;;;25.70;64.30;;;;;;5015073;28;20435;-63
2022/06/20 03:22:34;;;;;;;11.60;6.07;;;25.70;65.20;;;;;;5013511;28;20807;-64
2022/06/20 03:25:01;;;;;;;9.63;5.40;;;25.70;65.10;;;;;;4996491;28;21464;-63
2022/06/20 03:27:30;;;;;;;9.50;5.83;;;25.50;64.10;;;;;;5014897;28;20502;-64
2022/06/20 03:30:02;;;;;;;16.03;5.63;;;25.50;63.70;;;;;;5015351;28;20431;-64
2022/06/20 03:32:28;;;;;;;9.57;5.27;;;25.30;63.40;;;;;;5011944;28;20493;-63
2022/06/20 03:34:54;;;;;;;8.57;3.97;;;25.20;63.70;;;;;;5013792;28;20983;-63
2022/06/20 03:37:21;;;;;;;12.10;4.43;;;25.10;63.90;;;;;;5012695;28;20200;-63
2022/06/20 03:39:48;;;;;;;6.70;4.80;;;25.00;64.00;;;;;;5013180;28;20621;-63
2022/06/20 03:42:14;;;;;;;10.03;5.60;;;25.00;64.20;;;;;;5013380;28;20434;-64
2022/06/20 03:44:49;;;;;;;8.33;4.90;;;25.10;63.80;;;;;;5011656;28;20471;-64
2022/06/20 03:47:26;;;;;;;10.30;4.73;;;25.10;63.60;;;;;;5011212;28;20531;-64
2022/06/20 03:49:59;;;;;;;9.77;4.83;;;25.10;63.30;;;;;;5014686;28;20980;-64
2022/06/20 03:52:30;;;;;;;8.60;5.30;;;24.90;63.90;;;;;;5011427;28;20540;-64
2022/06/20 03:55:01;;;;;;;8.43;4.47;;;25.00;63.90;;;;;;5012096;28;20427;-64
2022/06/20 03:57:43;;;;;;;5.60;4.27;;;25.00;63.90;;;;;;5011962;28;20487;-64
2022/06/20 04:00:15;;;;;;;8.03;5.53;;;24.90;64.00;;;;;;5012133;28;20517;-63
2022/06/20 04:02:57;;;;;;;7.53;4.30;;;24.90;64.20;;;;;;5008410;28;20510;-64
2022/06/20 04:05:24;;;;;;;7.83;4.20;;;25.00;64.30;;;;;;5012096;28;20435;-64
2022/06/20 04:08:14;;;;;;;13.20;5.73;;;25.00;64.20;;;;;;5009130;28;20465;-63
2022/06/20 04:10:58;;;;;;;10.27;4.80;;;25.00;64.00;;;;;;5008546;28;20444;-64
2022/06/20 04:13:34;;;;;;;8.50;4.37;;;25.00;63.00;;;;;;5013463;28;20542;-64
2022/06/20 04:16:24;;;;;;;6.63;4.50;;;25.00;63.60;;;;;;5016869;28;20483;-64
2022/06/20 04:18:56;;;;;;;7.07;4.30;;;24.90;63.60;;;;;;5017662;28;21204;-64
2022/06/20 04:21:31;;;;;;;7.30;4.70;;;25.00;64.40;;;;;;5017707;28;20424;-64
2022/06/20 04:24:24;;;;;;;7.07;4.37;;;24.90;63.60;;;;;;5017667;28;20497;-64
2022/06/20 04:26:56;;;;;;;9.23;4.70;;;24.90;63.70;;;;;;5014775;28;20525;-64
2022/06/20 04:29:34;;;;;;;7.70;4.53;;;24.90;64.00;;;;;;5013749;28;20436;-64
2022/06/20 04:32:07;;;;;;;13.67;5.30;;;25.00;63.70;;;;;;5016781;28;20443;-64
2022/06/20 04:34:47;;;;;;;10.40;5.60;;;25.00;64.10;;;;;;5018043;28;20442;-63
2022/06/20 04:37:31;;;;;;;8.40;4.67;;;24.90;64.00;;;;;;5019957;28;20458;-63
2022/06/20 04:40:11;;;;;;;8.87;4.70;;;25.00;63.70;;;;;;5017436;28;20440;-63
2022/06/20 04:42:43;;;;;;;9.57;5.77;;;25.00;64.20;;;;;;5017286;28;20437;-64
2022/06/20 04:45:19;;;;;;;8.93;4.97;;;25.00;63.90;;;;;;5018585;28;20953;-64
2022/06/20 04:47:53;;;;;;;7.07;4.20;;;25.00;63.80;;;;;;5014621;28;20920;-64
2022/06/20 04:50:24;;;;;;;9.23;5.00;;;25.10;63.50;;;;;;5015612;28;20428;-64
2022/06/20 04:52:55;;;;;;;9.63;4.60;;;25.10;63.50;;;;;;5017731;28;20419;-63
2022/06/20 04:55:24;;;;;;;6.10;4.40;;;25.00;63.90;;;;;;5013761;28;20430;-63
2022/06/20 04:57:57;;;;;;;7.23;3.90;;;25.00;64.10;;;;;;5014836;28;20452;-64
2022/06/20 05:00:28;;;;;;;6.37;4.70;;;24.80;64.60;;;;;;5018077;28;20501;-62
2022/06/20 05:02:56;;;;;;;12.13;4.67;;;24.90;64.60;;;;;;5007304;28;20450;-65
2022/06/20 05:05:27;;;;;;;8.17;4.93;;;24.90;64.80;;;;;;5011522;28;20431;-63
2022/06/20 05:07:53;;;;;;;8.13;4.80;;;24.90;65.00;;;;;;4996188;28;20499;-65
2022/06/20 05:10:19;;;;;;;10.30;5.47;;;24.80;65.50;;;;;;5001355;28;20510;-65
2022/06/20 05:12:49;;;;;;;12.30;7.17;;;24.70;65.80;;;;;;5015439;28;20473;-65
2022/06/20 05:15:31;;;;;;;6.90;4.33;;;24.90;65.40;;;;;;5017444;28;20184;-65
2022/06/20 05:17:59;;;;;;;8.33;4.80;;;24.70;65.90;;;;;;5012545;28;20476;-65
2022/06/20 05:20:34;;;;;;;7.20;5.03;;;24.70;65.50;;;;;;5016690;28;20510;-66
2022/06/20 05:23:11;;;;;;;5.93;4.33;;;24.70;65.80;;;;;;5020259;28;20852;-65
2022/06/20 05:25:37;;;;;;;7.63;5.40;;;24.70;66.10;;;;;;5014301;28;20526;-64
2022/06/20 05:28:09;;;;;;;7.03;4.23;;;24.70;66.40;;;;;;5003498;28;20697;-63
2022/06/20 05:30:37;;;;;;;7.77;4.80;;;24.80;66.40;;;;;;5014968;28;20439;-65
2022/06/20 05:33:10;;;;;;;8.33;4.60;;;24.90;65.90;;;;;;5017026;28;20951;-65
2022/06/20 05:35:42;;;;;;;9.20;4.47;;;24.90;66.50;;;;;;5013424;28;20490;-65
2022/06/20 05:38:18;;;;;;;5.13;4.60;;;25.00;66.00;;;;;;5013424;28;20449;-65
2022/06/20 05:40:53;;;;;;;9.50;4.67;;;24.90;66.40;;;;;;5016128;28;20446;-65
2022/06/20 05:43:19;;;;;;;7.93;4.53;;;24.90;66.30;;;;;;5016068;28;20877;-64
2022/06/20 05:45:53;;;;;;;12.27;4.57;;;24.90;66.10;;;;;;5013438;28;20439;-64
2022/06/20 05:48:30;;;;;;;9.17;5.20;;;25.10;65.80;;;;;;5016964;28;20566;-64
2022/06/20 05:51:04;;;;;;;5.83;4.27;;;25.10;65.80;;;;;;5012135;28;20428;-65
2022/06/20 05:53:34;;;;;;;8.43;4.50;;;25.10;65.70;;;;;;5014047;28;20445;-64
2022/06/20 05:56:04;;;;;;;8.03;5.93;;;25.10;65.30;;;;;;5014954;28;20560;-64
2022/06/20 05:58:34;;;;;;;6.40;4.40;;;25.20;66.50;;;;;;5011337;28;20472;-65
2022/06/20 06:01:03;;;;;;;9.10;5.43;;;25.20;65.20;;;;;;5012305;28;21030;-65
2022/06/20 06:03:42;;;;;;;11.03;6.03;;;25.20;65.10;;;;;;5016194;28;20514;-64
2022/06/20 06:06:18;;;;;;;15.07;5.53;;;25.20;66.10;;;;;;5007898;28;20450;-65
2022/06/20 06:08:51;;;;;;;10.23;5.83;;;25.20;66.00;;;;;;5018974;28;20520;-65
2022/06/20 06:11:25;;;;;;;11.73;5.47;;;25.30;65.20;;;;;;5013066;28;20440;-66
2022/06/20 06:13:54;;;;;;;12.10;5.13;;;25.30;65.40;;;;;;5014069;28;21369;-65
2022/06/20 06:16:48;;;;;;;8.90;6.47;;;25.10;64.70;;;;;;5017888;28;20458;-65
2022/06/20 06:19:34;;;;;;;10.13;5.20;;;25.10;65.10;;;;;;5014604;28;20443;-65
2022/06/20 06:22:03;;;;;;;9.03;6.87;;;25.20;65.00;;;;;;5018042;28;20423;-65
2022/06/20 06:24:30;;;;;;;7.63;4.80;;;25.00;65.00;;;;;;5013685;28;20435;-64
2022/06/20 06:26:58;;;;;;;11.07;6.10;;;25.00;65.20;;;;;;5015662;28;20506;-63
2022/06/20 06:29:46;;;;;;;6.20;4.60;;;25.00;65.20;;;;;;5012804;28;20946;-64
2022/06/20 06:32:22;;;;;;;8.33;4.37;;;25.00;65.50;;;;;;5015520;28;21027;-64
2022/06/20 06:35:00;;;;;;;14.93;6.57;;;24.90;65.70;;;;;;5014456;28;20434;-65
2022/06/20 06:37:34;;;;;;;14.77;5.00;;;25.00;65.50;;;;;;5014477;28;20466;-63
2022/06/20 06:40:15;;;;;;;14.23;5.27;;;25.00;65.30;;;;;;5013357;28;20492;-64
2022/06/20 06:42:41;;;;;;;7.50;4.97;;;25.00;65.60;;;;;;5016146;28;20471;-63
2022/06/20 06:45:08;;;;;;;9.80;5.20;;;25.00;65.60;;;;;;5014723;28;20483;-65
2022/06/20 06:47:40;;;;;;;7.87;4.13;;;25.00;65.90;;;;;;5014167;28;20467;-66
2022/06/20 06:50:36;;;;;;;6.60;4.70;;;25.00;66.10;;;;;;5017497;28;20427;-65
2022/06/20 06:53:41;;;;;;;11.63;5.27;;;25.00;66.20;;;;;;5001233;28;20432;-64
2022/06/20 06:56:25;;;;;;;11.20;7.90;;;24.90;66.80;;;;;;5015608;28;20454;-65
2022/06/20 06:59:15;;;;;;;7.20;5.17;;;24.80;67.60;;;;;;5015369;28;20514;-65
2022/06/20 07:01:48;;;;;;;12.57;5.30;;;24.80;68.30;;;;;;5010953;28;20512;-66
2022/06/20 07:04:14;;;;;;;11.90;5.10;;;24.80;68.20;;;;;;5018490;28;20459;-65
2022/06/20 07:07:04;;;;;;;6.37;4.63;;;24.90;67.90;;;;;;5014385;28;20511;-64
2022/06/20 07:09:36;;;;;;;9.00;4.50;;;24.80;67.80;;;;;;5011978;28;20596;-65
2022/06/20 07:12:26;;;;;;;11.73;5.57;;;24.60;68.70;;;;;;5014016;28;20781;-64
2022/06/20 07:15:10;;;;;;;6.73;4.90;;;24.60;68.30;;;;;;5012320;28;20470;-65
2022/06/20 07:17:58;;;;;;;8.23;5.30;;;24.90;67.80;;;;;;5010387;28;20467;-66
2022/06/20 07:20:32;;;;;;;12.17;5.33;;;24.90;67.60;;;;;;5014600;28;20457;-64
2022/06/20 07:23:01;;;;;;;9.63;5.63;;;25.00;67.50;;;;;;5012957;28;20486;-65
2022/06/20 07:25:35;;;;;;;11.57;4.93;;;25.20;66.80;;;;;;4998024;28;20467;-64
2022/06/20 07:28:18;;;;;;;9.17;4.83;;;25.30;66.40;;;;;;5007543;28;20529;-66
2022/06/20 07:30:50;;;;;;;6.23;5.03;;;25.40;66.40;;;;;;5014270;28;20468;-64
2022/06/20 07:33:26;;;;;;;6.80;4.70;;;25.50;65.40;;;;;;5010987;28;20747;-65
2022/06/20 07:35:56;;;;;;;6.23;4.13;;;25.70;65.50;;;;;;5011345;28;20439;-65
2022/06/20 07:38:45;;;;;;;8.57;4.90;;;26.00;64.90;;;;;;4998080;28;20522;-66
2022/06/20 07:41:29;;;;;;;10.13;4.97;;;25.70;65.00;;;;;;5014191;28;20780;-66
2022/06/20 07:44:12;;;;;;;7.70;4.67;;;26.10;64.30;;;;;;5017621;28;20427;-67
2022/06/20 07:46:45;;;;;;;8.23;5.83;;;26.30;63.40;;;;;;5015191;28;20847;-66
2022/06/20 07:49:50;;;;;;;7.23;5.30;;;26.40;63.30;;;;;;5016701;28;20530;-64
2022/06/20 07:52:28;;;;;;;10.50;5.13;;;26.40;62.90;;;;;;5011354;28;21297;-65
2022/06/20 07:54:59;;;;;;;7.67;4.97;;;26.40;63.70;;;;;;5015602;28;20438;-65
2022/06/20 07:57:30;;;;;;;9.73;5.10;;;26.50;62.80;;;;;;5000939;28;20465;-65
2022/06/20 08:00:06;;;;;;;10.10;6.30;;;26.50;62.90;;;;;;5015489;28;20435;-68
2022/06/20 08:02:34;;;;;;;9.23;5.50;;;26.50;63.00;;;;;;5001476;28;21233;-69
2022/06/20 08:05:01;;;;;;;7.93;5.20;;;26.50;63.00;;;;;;5016238;28;20493;-68
2022/06/20 08:07:49;;;;;;;9.17;5.00;;;26.60;62.80;;;;;;5016294;28;20464;-66
2022/06/20 08:10:26;;;;;;;16.57;6.10;;;26.60;63.40;;;;;;5020565;28;20498;-68
2022/06/20 08:13:06;;;;;;;8.77;6.73;;;26.70;62.10;;;;;;5018283;28;20803;-68
2022/06/20 08:15:40;;;;;;;8.90;7.30;;;26.80;62.20;;;;;;5017740;28;20966;-65
2022/06/20 08:18:06;;;;;;;11.17;5.83;;;26.80;62.80;;;;;;5018119;28;20471;-67
2022/06/20 08:20:38;;;;;;;8.80;6.57;;;27.00;62.60;;;;;;4995557;28;20475;-67
2022/06/20 08:23:17;;;;;;;8.30;6.83;;;27.00;62.30;;;;;;5018734;28;20216;-66
2022/06/20 08:25:50;;;;;;;9.40;6.60;;;26.90;62.60;;;;;;5013889;28;20440;-65
2022/06/20 08:28:23;;;;;;;14.10;6.97;;;26.90;63.10;;;;;;5016050;28;20514;-65
2022/06/20 08:31:16;;;;;;;6.97;5.30;;;27.10;61.90;;;;;;5014703;28;20965;-66
2022/06/20 08:33:57;;;;;;;12.47;6.80;;;27.20;61.80;;;;;;5014447;28;20432;-66
2022/06/20 08:36:44;;;;;;;7.60;5.93;;;27.10;62.10;;;;;;5013468;28;20463;-66
2022/06/20 08:39:19;;;;;;;8.27;6.57;;;27.00;62.90;;;;;;5015013;28;20448;-66
2022/06/20 08:42:09;;;;;;;7.87;6.60;;;27.00;63.50;;;;;;5012958;28;20415;-67
2022/06/20 08:44:58;;;;;;;10.77;7.00;;;26.90;64.00;;;;;;5013940;28;20578;-66
2022/06/20 08:47:48;;;;;;;13.50;7.17;;;26.90;65.60;;;;;;5012920;28;20456;-66
2022/06/20 08:50:51;;;;;;;8.20;6.80;;;27.00;64.90;;;;;;5014937;28;20438;-66
2022/06/20 08:53:41;;;;;;;8.27;5.90;;;26.80;64.90;;;;;;5010595;28;20464;-67
2022/06/20 08:56:16;;;;;;;10.23;6.97;;;26.60;65.80;;;;;;5012193;28;20467;-66
2022/06/20 08:58:47;;;;;;;11.20;7.27;;;26.60;66.80;;;;;;5017837;28;20808;-66
2022/06/20 09:01:42;;;;;;;9.20;6.83;;;26.70;66.80;;;;;;5010419;28;20885;-66
2022/06/20 09:04:19;;;;;;;12.43;6.63;;;26.60;67.40;;;;;;5013339;28;20435;-66
2022/06/20 09:07:12;;;;;;;8.70;6.53;;;26.60;67.90;;;;;;5015110;28;21269;-66
2022/06/20 09:09:50;;;;;;;16.40;7.53;;;26.50;67.20;;;;;;5013923;28;20450;-67
2022/06/20 09:12:38;;;;;;;10.40;6.43;;;26.60;67.70;;;;;;5016392;28;20852;-68
2022/06/20 09:15:31;;;;;;;9.27;6.80;;;26.60;68.50;;;;;;5017699;28;20427;-68
2022/06/20 09:18:02;;;;;;;15.43;7.00;;;26.60;68.00;;;;;;5016150;28;20652;-68
2022/06/20 09:20:35;;;;;;;10.10;6.40;;;26.80;68.10;;;;;;5013618;28;20447;-67
2022/06/20 09:23:48;;;;;;;10.20;7.40;;;26.80;67.30;;;;;;5014460;28;20436;-68
2022/06/20 09:26:31;;;;;;;12.50;7.10;;;26.80;66.90;;;;;;4882523;29;20460;-67
2022/06/20 09:29:27;;;;;;;11.60;7.13;;;26.70;66.90;;;;;;4902591;29;20870;-66
2022/06/20 09:32:01;;;;;;;10.47;7.90;;;26.90;67.00;;;;;;4974504;28;20465;-67
2022/06/20 09:35:05;;;;;;;8.20;6.13;;;27.00;66.60;;;;;;5012583;28;20465;-68
2022/06/20 09:38:01;;;;;;;13.40;7.10;;;27.00;66.50;;;;;;4970237;28;20491;-67
2022/06/20 09:40:55;;;;;;;8.30;6.90;;;27.10;66.50;;;;;;5013210;28;20816;-66
2022/06/20 09:43:35;;;;;;;7.03;6.07;;;27.00;66.70;;;;;;5012583;28;20436;-67
2022/06/20 09:46:24;;;;;;;12.17;7.00;;;27.20;66.20;;;;;;5011953;28;21219;-67
2022/06/20 09:49:20;;;;;;;8.97;6.57;;;27.00;66.40;;;;;;5011523;28;20459;-67
2022/06/20 09:52:10;;;;;;;12.00;7.33;;;27.20;66.30;;;;;;5013279;28;20451;-67
2022/06/20 09:54:49;;;;;;;10.30;7.10;;;26.80;67.00;;;;;;5013494;28;20414;-66
2022/06/20 09:59:58;;;;;;;10.87;7.60;;;27.00;68.20;;;;;;5000312;28;20838;-62
2022/06/20 10:03:01;;;;;;;11.13;6.83;;;27.00;68.30;;;;;;5002361;28;20954;-62
2022/06/20 10:06:06;;;;;;;8.50;6.73;;;27.20;68.10;;;;;;5003335;28;20446;-64
2022/06/20 10:08:47;;;;;;;11.13;7.00;;;27.50;68.00;;;;;;5001972;28;20480;-63
2022/06/20 10:11:20;;;;;;;9.17;6.90;;;27.70;66.10;;;;;;5002362;28;20443;-63
2022/06/20 10:13:45;;;;;;;10.07;6.40;;;27.60;65.60;;;;;;4998311;28;20450;-63
2022/06/20 10:16:37;;;;;;;16.30;6.77;;;27.60;65.90;;;;;;5000456;28;20407;-62
2022/06/20 10:19:19;;;;;;;13.77;7.33;;;27.50;66.20;;;;;;5000481;28;20210;-64
2022/06/20 10:22:01;;;;;;;9.47;6.93;;;27.70;66.60;;;;;;4997092;28;20476;-62
2022/06/20 10:24:41;;;;;;;19.47;7.63;;;27.70;66.30;;;;;;4998013;28;20448;-63
2022/06/20 10:27:42;;;;;;;11.00;8.17;;;27.80;65.80;;;;;;4998346;28;20450;-62
2022/06/20 10:30:41;;;;;;;7.97;6.63;;;27.60;66.00;;;;;;4955618;28;20731;-62
2022/06/20 10:33:25;;;;;;;15.47;8.50;;;27.50;66.50;;;;;;4997163;28;20448;-65
2022/06/20 10:35:55;;;;;;;8.83;6.50;;;27.60;67.20;;;;;;4999836;28;21112;-62
2022/06/20 10:38:39;;;;;;;8.63;6.70;;;27.70;66.80;;;;;;5002477;28;20470;-62
2022/06/20 10:41:06;;;;;;;12.63;7.60;;;27.60;66.80;;;;;;4999826;28;20946;-62
2022/06/20 10:43:47;;;;;;;8.37;6.60;;;27.60;67.30;;;;;;4998808;28;20432;-62
2022/06/20 10:46:40;;;;;;;9.20;5.67;;;27.80;67.30;;;;;;4998986;28;20440;-62
2022/06/20 10:49:15;;;;;;;8.63;6.17;;;28.10;66.30;;;;;;4999686;28;20506;-62
2022/06/20 10:51:48;;;;;;;6.20;4.60;;;28.20;64.90;;;;;;4997918;28;20435;-62
2022/06/20 10:54:26;;;;;;;6.70;4.93;;;28.40;63.10;;;;;;4997748;28;20447;-63
2022/06/20 10:57:14;;;;;;;6.30;4.20;;;28.50;61.70;;;;;;4993002;28;20540;-63
2022/06/20 11:00:06;;;;;;;4.80;4.10;;;28.40;59.30;;;;;;4999721;28;20605;-62
2022/06/20 11:03:04;;;;;;;4.70;4.10;;;28.30;59.70;;;;;;4998542;28;20444;-62
2022/06/20 11:05:43;;;;;;;5.00;3.80;;;28.30;59.80;;;;;;5002212;28;20588;-62
2022/06/20 11:08:24;;;;;;;5.17;4.13;;;28.30;60.40;;;;;;4999965;28;20510;-62
2022/06/20 11:11:21;;;;;;;13.33;4.30;;;28.30;60.80;;;;;;5000065;28;20511;-62
2022/06/20 11:13:50;;;;;;;5.23;3.60;;;28.40;60.90;;;;;;5001260;28;20414;-62
2022/06/20 11:16:25;;;;;;;4.20;3.80;;;28.50;60.30;;;;;;4998010;28;20426;-62
2022/06/20 11:19:09;;;;;;;6.27;4.40;;;28.50;59.50;;;;;;5000679;28;20447;-63
2022/06/20 11:21:43;;;;;;;6.40;3.80;;;28.70;59.00;;;;;;5001445;28;20972;-63
2022/06/20 11:24:11;;;;;;;8.50;4.13;;;28.70;58.90;;;;;;4983412;28;20531;-62
2022/06/20 11:27:10;;;;;;;4.23;3.80;;;28.60;57.90;;;;;;5002668;28;20444;-62
2022/06/20 11:29:54;;;;;;;7.83;5.37;;;28.40;58.30;;;;;;4957674;28;20414;-62
2022/06/20 11:32:38;;;;;;;9.13;5.67;;;28.10;62.50;;;;;;5003855;28;20438;-62
2022/06/20 11:35:17;;;;;;;9.27;4.93;;;28.20;63.40;;;;;;5004039;28;20410;-62
2022/06/20 11:38:01;;;;;;;8.60;5.60;;;28.20;63.80;;;;;;5002211;28;20462;-63
2022/06/20 11:40:57;;;;;;;8.23;5.73;;;28.20;64.30;;;;;;5000124;28;20816;-62
2022/06/20 11:43:45;;;;;;;8.00;6.30;;;28.10;64.80;;;;;;4999200;28;20441;-62
2022/06/20 11:46:44;;;;;;;9.40;5.83;;;28.00;65.30;;;;;;5004265;28;20898;-62
2022/06/20 11:49:33;;;;;;;8.60;5.60;;;27.90;66.50;;;;;;5001045;28;20587;-62
2022/06/20 11:52:25;;;;;;;6.50;5.70;;;27.70;67.30;;;;;;5001510;28;20438;-62
2022/06/20 11:55:13;;;;;;;10.13;5.40;;;27.70;68.30;;;;;;5004567;28;20528;-62
2022/06/20 11:57:47;;;;;;;13.17;6.57;;;27.50;69.30;;;;;;5003016;28;20542;-62
2022/06/20 12:00:46;;;;;;;8.53;6.00;;;27.40;71.10;;;;;;5001978;28;20573;-62
2022/06/20 12:03:12;;;;;;;6.53;5.63;;;27.30;72.20;;;;;;4984564;28;20448;-62
2022/06/20 12:05:52;;;;;;;8.90;6.10;;;27.30;74.90;;;;;;5004229;28;20432;-62
2022/06/20 12:08:55;;;;;;;7.53;5.20;;;27.20;76.30;;;;;;4985139;28;20243;-62
2022/06/20 12:11:30;;;;;;;6.67;5.07;;;27.00;77.30;;;;;;4958982;28;20422;-68
2022/06/20 12:14:23;;;;;;;7.90;4.60;;;26.80;80.40;;;;;;5002035;28;20439;-65
2022/06/20 12:17:14;;;;;;;10.47;5.10;;;26.90;79.10;;;;;;4998559;28;20805;-66
2022/06/20 12:25:24;;;;;;;9.70;4.53;;;27.30;77.70;;;;;;5003663;28;20443;-66
2022/06/20 12:27:51;;;;;;;6.57;4.80;;;27.30;77.20;;;;;;5001322;28;20992;-65
2022/06/20 12:30:17;;;;;;;6.03;4.20;;;27.30;76.90;;;;;;5001288;28;20432;-66
2022/06/20 12:32:46;;;;;;;6.10;4.37;;;27.30;76.00;;;;;;4999838;28;20757;-66
2022/06/20 12:35:31;;;;;;;5.03;4.53;;;27.30;74.40;;;;;;5003169;28;20530;-66
2022/06/20 12:38:28;;;;;;;6.27;4.00;;;27.30;74.00;;;;;;5003378;28;20484;-67
2022/06/20 12:41:03;;;;;;;5.77;3.80;;;27.20;74.40;;;;;;4983966;28;20476;-66
2022/06/20 12:44:11;;;;;;;4.00;3.60;;;27.30;73.50;;;;;;5002322;28;21143;-67
2022/06/20 12:46:50;;;;;;;4.63;4.10;;;27.50;73.10;;;;;;4968034;28;20784;-65
2022/06/20 12:49:22;;;;;;;3.73;3.30;;;28.10;72.00;;;;;;4998279;28;20511;-65
2022/06/20 12:52:15;;;;;;;4.87;3.10;;;28.40;68.30;;;;;;4999713;28;20462;-66
2022/06/20 12:55:01;;;;;;;6.53;3.10;;;28.50;66.10;;;;;;4955885;28;20517;-66
2022/06/20 12:57:39;;;;;;;5.50;4.03;;;28.60;65.60;;;;;;4999728;28;21025;-67
2022/06/20 13:00:29;;;;;;;4.97;3.47;;;28.60;63.20;;;;;;5002959;28;20440;-63
2022/06/20 13:03:32;;;;;;;7.33;3.50;;;28.40;63.70;;;;;;5001684;28;20399;-65
2022/06/20 13:06:03;;;;;;;3.60;3.30;;;28.50;62.60;;;;;;5001574;28;20443;-65
2022/06/20 13:08:54;;;;;;;5.03;3.97;;;28.50;62.00;;;;;;4987840;28;20476;-66
2022/06/20 13:11:36;;;;;;;4.33;3.93;;;28.20;63.30;;;;;;5000713;28;20523;-66
2022/06/20 13:14:23;;;;;;;4.30;3.60;;;28.00;63.10;;;;;;5002779;28;20507;-65
2022/06/20 13:17:13;;;;;;;10.47;7.23;;;27.90;64.20;;;;;;4999667;28;20430;-65
2022/06/20 13:20:09;;;;;;;5.80;4.80;;;27.90;63.60;;;;;;4987232;28;20438;-65
2022/06/20 13:23:19;;;;;;;7.07;5.67;;;27.80;63.30;;;;;;5003225;28;20436;-65
2022/06/20 13:25:59;;;;;;;4.40;3.80;;;28.10;63.40;;;;;;4986798;28;20444;-65
2022/06/20 13:28:39;;;;;;;4.97;4.50;;;28.40;62.30;;;;;;4998385;28;20475;-65
2022/06/20 13:31:22;;;;;;;4.33;3.77;;;28.50;61.70;;;;;;5000797;28;20903;-65
2022/06/20 13:33:53;;;;;;;9.57;4.07;;;28.60;62.00;;;;;;4996161;28;20416;-66
2022/06/20 13:36:46;;;;;;;4.83;4.20;;;28.40;60.80;;;;;;4983024;28;20428;-65
2022/06/20 13:39:41;;;;;;;5.00;4.10;;;28.20;61.50;;;;;;4978072;28;20503;-66
2022/06/20 13:42:22;;;;;;;5.20;4.53;;;28.30;61.30;;;;;;4999704;28;20779;-65
2022/06/20 13:45:24;;;;;;;4.73;3.80;;;28.80;61.90;;;;;;4998883;28;20444;-66
2022/06/20 13:48:17;;;;;;;4.10;3.70;;;30.40;60.90;;;;;;4983603;28;20514;-66